TimeMDT,TemperatureF,Dew PointF,Humidity,Sea Level PressureIn,VisibilityMPH,Wind Direction,Wind SpeedMPH,Gust SpeedMPH,PrecipitationIn,Events,Conditions,WindDirDegrees,DateUTC
12:56 AM,50.0,43.0,77,30.15,-9999.0,NNW,10.4,-,N/A,,Unknown,330,2012-10-01 06:56:00
1:56 AM,50.0,44.1,80,30.16,-9999.0,NNW,11.5,-,N/A,,Unknown,330,2012-10-01 07:56:00
2:56 AM,46.9,44.1,90,30.18,-9999.0,North,13.8,-,N/A,,Unknown,350,2012-10-01 08:56:00
3:56 AM,45.0,43.0,93,30.19,-9999.0,NW,12.7,-,N/A,,Unknown,320,2012-10-01 09:56:00
4:56 AM,43.0,42.1,97,30.22,-9999.0,NNW,16.1,-,N/A,,Unknown,330,2012-10-01 10:56:00
5:56 AM,41.0,39.9,96,30.23,-9999.0,WNW,3.5,-,N/A,,Unknown,290,2012-10-01 11:56:00
6:56 AM,43.0,43.0,100,30.25,-9999.0,NW,9.2,-,N/A,,Unknown,320,2012-10-01 12:56:00
7:56 AM,42.1,42.1,100,30.27,-9999.0,WNW,9.2,-,N/A,,Unknown,290,2012-10-01 13:56:00
8:56 AM,46.9,44.1,90,30.27,-9999.0,West,10.4,-,N/A,,Unknown,280,2012-10-01 14:56:00
9:56 AM,53.1,41.0,64,30.25,-9999.0,West,6.9,-,N/A,,Unknown,260,2012-10-01 15:56:00
10:56 AM,57.0,36.0,45,30.22,-9999.0,WNW,8.1,-,N/A,,Unknown,300,2012-10-01 16:56:00
12:56 PM,62.1,30.0,30,30.16,-9999.0,West,8.1,-,N/A,,Unknown,280,2012-10-01 18:56:00
1:56 PM,64.9,28.0,25,30.11,-9999.0,WSW,8.1,16.1,N/A,,Unknown,240,2012-10-01 19:56:00
2:56 PM,66.9,28.0,23,30.09,-9999.0,Calm,Calm,-,N/A,,Unknown,0,2012-10-01 20:56:00
3:56 PM,66.9,26.1,21,30.05,-9999.0,SSW,10.4,-,N/A,,Unknown,210,2012-10-01 21:56:00
4:56 PM,68.0,25.0,20,30.03,-9999.0,SW,6.9,-,N/A,,Unknown,220,2012-10-01 22:56:00
5:56 PM,64.9,26.1,23,30.01,-9999.0,South,9.2,-,N/A,,Unknown,180,2012-10-01 23:56:00
6:56 PM,57.9,26.1,30,29.99,-9999.0,SSE,11.5,-,N/A,,Unknown,150,2012-10-02 00:56:00
7:56 PM,54.0,26.1,34,29.98,-9999.0,SSE,13.8,-,N/A,,Unknown,150,2012-10-02 01:56:00
8:56 PM,52.0,26.1,37,29.96,-9999.0,SSE,16.1,-,N/A,,Unknown,160,2012-10-02 02:56:00
9:56 PM,50.0,26.1,39,29.92,-9999.0,SSE,12.7,-,N/A,,Unknown,160,2012-10-02 03:56:00
10:56 PM,50.0,27.0,41,29.88,-9999.0,SSE,13.8,-,N/A,,Unknown,160,2012-10-02 04:56:00
11:56 PM,50.0,28.9,44,29.84,-9999.0,South,13.8,-,N/A,,Unknown,170,2012-10-02 05:56:00